Pagrindinis puslapis
METAR-TAF:

METAR-TAF

Oro uostai :

Odesa, Ukraina

platuma: 46-26N, ilguma: 030-46E, Aukštis: 42 m

Dabartinis oras

Ataskaita buvo paskelbta 33 minutes, ne 23:00 UTC
Vėjas 12 kt iš Rytų
Temperatūra 4°C
Drėgmė 100%
Slėgis 1024 hPa
Matomumas: 6000 m
Apsiniaukę ne aukštis 300 ft

METAR: UKOO 042300Z 09006MPS 6000 OVC003 04/04 Q1024 R16/190058 NOSIG

Laikas: 01:33 (23:33 UTC)

Prognozė

Ataskaita buvo paskelbta 6 valandos ir 37 minutes, ne 16:56 UTC
Prognozė galioja nuo 04 metu 12 UTC su 05 metu 12 UTC
Vėjas 16 kt iš Rytų su gūsio iki 27 kt
Matomumas: 2100 m
Apsiniaukę ne aukštis 300 ft
rūkana
Laikinai
nuo 04 metu 12 UTC su 05 metu 07 UTC
Matomumas: 0300 m
ne aukštis 100 ft
dulksna, rūkas
Tapsmas
nuo 05 metu 07 UTC su 05 metu 08 UTC
Išsisklaidę debesys ne aukštis 400 ft
Su prošvaistėmis ne aukštis 700 ft

TAF: UKOO 041656Z 0412/0512 10008G14MPS 2100 BR OVC003 TX07/0412Z TN03/0503Z TEMPO 0412/0507 0300 -DZ FG VV001 BECMG 0507/0508 SCT004 BKN007

Orai ataskaitas ir orų prognozės (METAR, TAF).

turimą stotys yra geltonos ir raudonos taškus žemėlapyje.

Perkelti pele per norėdami pamatyti stoties vardą.

Tada spustelėkite, norėdami matyti oro stebėjimo ir prognozės.

Norėdami pakeisti žemėlapį: spustelėkite ant žalios mygtukų su juodo kryžiaus žemyn,; žalią mygtuką su brūkšneliu, jei norite nutolinti; arba žalių rodyklių gretimoms žemėlapius.


METAR-TAF: